22°C
Gosport, Hampshire, United Kingdom
Language:  English
Updated19/08/2022 18:20:00 
 

Nearby METAR Reports

 

EGHI - Southampton Wx Centre, United Kingdom
Distance from station: NW 15mi, 24km
Updated: 19-Aug-2022 17:50:00
Clear
Clear
 Wind from WNW
Wind: WNW 6 mph , 9 km/h
Temperature: 22°C
Dew Point: 10°C
Humidity: 47%
Barometer: 1016 hPa
Summary: Clear
Visibility: greater than 7 miles , 10 km
2022/08/19 16:50 EGHI 191650Z 30005KT 250V330 CAVOK 22/10 Q1016
EGHH - Bournemouth Airport, United Kingdom
Distance from station: W 30mi, 49km
Updated: 19-Aug-2022 17:50:00
Partly cloudy
Partly cloudy
 Wind from W
Wind: W 14 mph , 22 km/h
Temperature: 22°C
Dew Point: 11°C
Humidity: 50%
Barometer: 1016 hPa
Clouds: Partly cloudy
Visibility: 6 miles , 10 km
Cloud details: Few Clouds 853 m
Partly cloudy 1402 m
2022/08/19 16:50 EGHH 191650Z 28012KT 250V330 9999 FEW028 SCT046 22/11 Q1016
EGVP - Middle Wallop Airfield, United Kingdom
Distance from station: NW 31mi, 49km
Updated: 19-Aug-2022 17:50:00
Few Clouds
Few Clouds
 Wind from WNW
Wind: WNW 13 mph , 20 km/h
Temperature: 21°C
Dew Point: 9°C
Humidity: 46%
Barometer: 1016 hPa
Clouds: Few Clouds
Visibility: 6 miles , 10 km
Cloud details: Few Clouds 1524 m
2022/08/19 16:50 EGVP 191650Z AUTO 29011KT 9999 FEW050/// 21/09 Q1016
 
EGVO - RAF Odiham, United Kingdom
Distance from station: NNE 32mi, 52km
Updated: 19-Aug-2022 17:50:00
Clear
Clear
 Wind from W
Wind: W 15 mph , 24 km/h
Temperature: 22°C
Dew Point: 7°C
Humidity: 38%
Barometer: 1016 hPa
Summary: Clear
Visibility: greater than 7 miles , 10 km
2022/08/19 16:50 EGVO 191650Z 27013KT CAVOK 22/07 Q1016 NOSIG RMK BLU BLU
EGKA - Shoreham Airport, United Kingdom
Distance from station: E 37mi, 59km
Updated: 19-Aug-2022 17:50:00
Clear
Clear
 Wind from WNW
Wind: WNW 14 mph , 22 km/h
Temperature: 23°C
Dew Point: 9°C
Humidity: 41%
Barometer: 1015 hPa
Summary: Clear
Visibility: greater than 7 miles , 10 km
2022/08/19 16:50 EGKA 191650Z 30012KT CAVOK 23/09 Q1015
EGDM - Boscombe Down, United Kingdom
Distance from station: NW 38mi, 61km
Updated: 19-Aug-2022 17:50:00
Mostly cloudy
Mostly cloudy
 Wind from NW
Wind: NW 17 mph , 28 km/h
Temperature: 21°C
Dew Point: 9°C
Humidity: 46%
Barometer: 1016 hPa
Clouds: Mostly cloudy
Visibility: 6 miles , 10 km
Cloud details: Mostly cloudy 1402 m
2022/08/19 16:50 EGDM 191650Z AUTO 31015KT 9999 BKN046/// 21/09 Q1016
 
EGLF - Farnborough, United Kingdom
Distance from station: NNE 38mi, 61km
Updated: 19-Aug-2022 17:50:00
Clear
Clear
 Wind from WNW
Wind: WNW 13 mph , 20 km/h
Temperature: 22°C
Dew Point: 8°C
Humidity: 41%
Barometer: 1016 hPa
Summary: Clear
Visibility: greater than 7 miles , 10 km
2022/08/19 16:50 EGLF 191650Z 30011KT 250V330 CAVOK 22/08 Q1016
EGKK - Gatwick Airport, United Kingdom
Distance from station: ENE 49mi, 78km
Updated: 19-Aug-2022 17:50:00
Clear
Clear
 Wind from WNW
Wind: WNW 14 mph , 22 km/h
Temperature: 23°C
Dew Point: 8°C
Humidity: 38%
Barometer: 1015 hPa
Summary: Clear
Visibility: greater than 7 miles , 10 km
2022/08/19 16:50 EGKK 191650Z 29012KT 260V320 CAVOK 23/08 Q1015
EGLL - Heathrow Airport, United Kingdom
Distance from station: NNE 57mi, 91km
Updated: 19-Aug-2022 17:50:00
Clear
Clear
 Wind from WNW
Wind: WNW 14 mph , 22 km/h
Temperature: 23°C
Dew Point: 8°C
Humidity: 38%
Barometer: 1015 hPa
Clouds: Clear
Visibility: 6 miles , 10 km
2022/08/19 16:50 EGLL 191650Z AUTO 29012KT 9999 NCD 23/08 Q1015 NOSIG
 
EGUB - RAF Benson, United Kingdom
Distance from station: N 58mi, 93km
Updated: 19-Aug-2022 16:20:00
NOT Current
Clear
Clear
 Wind from W
Wind: W 10 mph , 17 km/h
Temperature: 22°C
Dew Point: 7°C
Humidity: 38%
Barometer: 1015 hPa
Summary: Clear
Visibility: greater than 7 miles , 10 km
2022/08/19 15:20 EGUB 191520Z 28009KT CAVOK 22/07 Q1015 NOSIG RMK BLU BLU
EGWU - RAF Northolt, United Kingdom
Distance from station: NNE 62mi, 99km
Updated: 19-Aug-2022 17:50:00
Clear
Clear
 Wind from WNW
Wind: WNW 15 mph , 24 km/h
Temperature: 23°C
Dew Point: 7°C
Humidity: 36%
Barometer: 1015 hPa
Summary: Clear
Visibility: greater than 7 miles , 10 km
2022/08/19 16:50 EGWU 191650Z 29013KT CAVOK 23/07 Q1015 NOSIG
EGKB - Biggin Hill Airport, United Kingdom
Distance from station: NE 62mi, 100km
Updated: 19-Aug-2022 17:50:00
Nearby smoke, Partly cloudy
Nearby smoke, Partly cloudy
 Wind from W
Wind: W 9 mph , 15 km/h
Temperature: 22°C
Dew Point: 7°C
Humidity: 38%
Barometer: 1016 hPa
Summary: Nearby Smoke
Clouds: Partly cloudy
Visibility: 6 miles , 10 km
2022/08/19 16:50 EGKB 191650Z 27008KT 210V320 9999 VCFU NSC 22/07 Q1016
 
EGDY - RNAS Yeovilton, United Kingdom
Distance from station: WNW 66mi, 107km
Updated: 19-Aug-2022 17:50:00
Partly cloudy
Partly cloudy
 Wind from NW
Wind: NW 15 mph , 24 km/h
Temperature: 20°C
Dew Point: 12°C
Humidity: 60%
Barometer: 1017 hPa
Clouds: Partly cloudy
Visibility: 6 miles , 10 km
Cloud details: Few Clouds 1158 m
Partly cloudy 1554 m
2022/08/19 16:50 EGDY 191650Z AUTO 31013KT 9999 FEW038/// SCT051/// 20/12 Q1017
EGUO - Colerne Airfield, United Kingdom
Distance from station: NW 67mi, 108km
Updated: 14-Feb-2019 22:50:00
NOT Current
Clear
Clear
 Wind from ENE
Wind: ENE 1 mph , 2 km/h
Temperature: 1°C
Dew Point: 0°C
Humidity: 93%
Barometer: 1029 hPa
Summary: Clear
Visibility: greater than 7 miles , 10 km
2019/02/14 22:50 EGUO 142250Z 06001KT CAVOK 01/00 Q1029 BLU NOSIG
EGVA - RAF Fairford, United Kingdom
Distance from station: NNW 67mi, 108km
Updated: 19-Aug-2022 17:56:00
Few Clouds
Few Clouds
 Wind from W
Wind: W 16 mph , 26 km/h
Temperature: 22°C
Dew Point: 9°C
Humidity: 44%
Barometer: 1015.2 hPa
Clouds: Few Clouds
Visibility: 6 miles , 10 km
Cloud details: Few Clouds 1524 m
2022/08/19 16:56 EGVA 191656Z AUTO 27014KT 9999 FEW050 22/09 A2998 RMK AO2 SLP153 T02150091 $
 
EGVN - RAF Brize Norton, United Kingdom
Distance from station: NNW 71mi, 114km
Updated: 19-Aug-2022 17:50:00
Partly cloudy
Partly cloudy
 Wind from W
Wind: W 9 mph , 15 km/h
Temperature: 21°C
Dew Point: 9°C
Humidity: 46%
Barometer: 1015 hPa
Clouds: Partly cloudy
Visibility: 6 miles , 10 km
Cloud details: Few Clouds 1463 m
Partly cloudy 1585 m
2022/08/19 16:50 EGVN 191650Z 28008KT 9999 FEW048 SCT052 21/09 Q1015 NOSIG RMK BLU BLU
EGLC - London City Airport, United Kingdom
Distance from station: NE 71mi, 115km
Updated: 19-Aug-2022 17:50:00
Clear
Clear
 Wind from W
Wind: W 13 mph , 20 km/h
Temperature: 24°C
Dew Point: 8°C
Humidity: 36%
Barometer: 1015 hPa
Clouds: Clear
Visibility: 6 miles , 10 km
2022/08/19 16:50 EGLC 191650Z AUTO 27011KT 9999 NCD 24/08 Q1015
EGGD - Bristol Airport, United Kingdom
Distance from station: WNW 80mi, 128km
Updated: 19-Aug-2022 17:50:00
Partly cloudy
Partly cloudy
 Wind from W
Wind: W 16 mph , 26 km/h
Temperature: 19°C
Dew Point: 10°C
Humidity: 56%
Barometer: 1017 hPa
Clouds: Partly cloudy
Visibility: 6 miles , 10 km
Cloud details: Partly cloudy 1463 m
2022/08/19 16:50 EGGD 191650Z AUTO 26014KT 9999 SCT048 19/10 Q1017
 
LFRC - Cherbourg-Maupertus Airport, France
Distance from station: S 81mi, 130km
Updated: 19-Aug-2022 18:00:00
Clear
Clear
 Wind from W
Wind: W 15 mph , 24 km/h
Temperature: 19°C
Dew Point: 12°C
Humidity: 64%
Barometer: 1019 hPa
Summary: Clear
Visibility: greater than 7 miles , 10 km
2022/08/19 17:00 LFRC 191700Z AUTO 28013KT CAVOK 19/12 Q1019 NOSIG
EGGW - Luton Airport, United Kingdom
Distance from station: NNE 82mi, 132km
Updated: 19-Aug-2022 17:50:00
Clear
Clear
 Wind from W
Wind: W 13 mph , 20 km/h
Temperature: 22°C
Dew Point: 4°C
Humidity: 31%
Barometer: 1015 hPa
Clouds: Clear
Visibility: 6 miles , 10 km
2022/08/19 16:50 EGGW 191650Z AUTO 26011KT 9999 NCD 22/04 Q1015